createdAt,value
2023-03-31T00:00:24.408Z,358
2023-03-31T00:01:26.318Z,361
2023-03-31T00:02:22.989Z,358
2023-03-31T00:03:23.523Z,357
2023-03-31T00:04:23.391Z,352
2023-03-31T00:05:23.138Z,356
2023-03-31T00:06:23.151Z,354
2023-03-31T00:08:22.972Z,350
2023-03-31T00:09:23.051Z,359
2023-03-31T00:10:23.715Z,351
2023-03-31T00:11:23.159Z,352
2023-03-31T00:12:23.805Z,351
2023-03-31T00:13:23.058Z,339
2023-03-31T00:14:23.402Z,344
2023-03-31T00:15:23.901Z,354
2023-03-31T00:16:23.271Z,353
2023-03-31T00:17:23.763Z,357
2023-03-31T00:18:23.390Z,350
2023-03-31T00:20:23.434Z,349
2023-03-31T00:21:23.731Z,345
2023-03-31T00:22:23.839Z,355
2023-03-31T00:23:23.608Z,360
2023-03-31T00:24:23.144Z,363
2023-03-31T00:25:23.530Z,357
2023-03-31T00:27:23.437Z,349
2023-03-31T00:28:23.659Z,347
2023-03-31T00:29:23.160Z,355
2023-03-31T00:30:23.699Z,347
2023-03-31T00:31:22.782Z,352
2023-03-31T00:32:23.473Z,358
2023-03-31T00:33:23.089Z,359
2023-03-31T00:34:23.672Z,354
2023-03-31T00:35:23.274Z,355
2023-03-31T00:36:23.236Z,360
2023-03-31T00:37:23.624Z,369
2023-03-31T00:38:23.556Z,367
2023-03-31T00:39:23.558Z,363
2023-03-31T00:40:24.061Z,354
2023-03-31T00:41:23.413Z,360
2023-03-31T00:42:23.733Z,349
2023-03-31T00:43:22.837Z,355
2023-03-31T00:45:23.839Z,353
2023-03-31T00:46:23.135Z,356
2023-03-31T00:47:23.318Z,359
2023-03-31T00:48:23.294Z,354
2023-03-31T00:49:23.390Z,360
2023-03-31T00:50:23.626Z,354
2023-03-31T00:51:23.213Z,356
2023-03-31T00:52:23.162Z,368
2023-03-31T00:53:22.997Z,364
2023-03-31T00:54:23.194Z,352
2023-03-31T00:55:23.606Z,347
2023-03-31T00:56:23.012Z,356
2023-03-31T00:57:23.331Z,361
2023-03-31T00:58:23.825Z,363
2023-03-31T01:00:24.391Z,356
2023-03-31T01:01:24.023Z,360
2023-03-31T01:02:23.762Z,372
2023-03-31T01:03:23.065Z,362
2023-03-31T01:04:23.650Z,354
2023-03-31T01:05:23.172Z,351
2023-03-31T01:06:23.395Z,345
2023-03-31T01:07:23.661Z,347
2023-03-31T01:08:23.302Z,346
2023-03-31T01:09:22.779Z,350
2023-03-31T01:10:23.237Z,356
2023-03-31T01:11:22.992Z,339
2023-03-31T01:12:23.268Z,340
2023-03-31T01:14:22.869Z,352
2023-03-31T01:15:23.372Z,346
2023-03-31T01:16:23.581Z,348
2023-03-31T01:17:23.313Z,351
2023-03-31T01:18:23.382Z,348
2023-03-31T01:19:23.238Z,354
2023-03-31T01:20:23.313Z,341
2023-03-31T01:21:23.506Z,344
2023-03-31T01:22:23.627Z,351
2023-03-31T01:23:22.798Z,346
2023-03-31T01:24:22.873Z,349
2023-03-31T01:25:22.965Z,351
2023-03-31T01:26:23.046Z,346
2023-03-31T01:27:22.734Z,347
2023-03-31T01:28:23.334Z,339
2023-03-31T01:29:23.604Z,346
2023-03-31T01:31:23.318Z,340
2023-03-31T01:32:22.797Z,352
2023-03-31T01:33:24.117Z,353
2023-03-31T01:34:23.079Z,358
2023-03-31T01:35:23.379Z,353
2023-03-31T01:36:22.992Z,350
2023-03-31T01:39:23.619Z,349
2023-03-31T01:40:23.820Z,348
2023-03-31T01:41:23.408Z,354
2023-03-31T01:42:23.713Z,349
2023-03-31T01:43:23.099Z,341
2023-03-31T01:44:23.269Z,344
2023-03-31T01:45:23.866Z,348
2023-03-31T01:46:23.341Z,352
2023-03-31T01:47:23.530Z,356
2023-03-31T01:48:23.808Z,364
2023-03-31T01:49:22.525Z,358
2023-03-31T01:50:23.558Z,347
2023-03-31T01:51:23.365Z,349
2023-03-31T01:52:23.042Z,345
2023-03-31T01:53:23.198Z,362
2023-03-31T01:54:23.381Z,368
2023-03-31T01:55:22.870Z,358
2023-03-31T01:56:22.940Z,349
2023-03-31T01:57:23.489Z,347
2023-03-31T01:58:22.566Z,352
2023-03-31T01:59:23.126Z,364
2023-03-31T02:01:27.634Z,365
2023-03-31T02:02:23.052Z,360
2023-03-31T02:03:22.980Z,348
2023-03-31T02:04:23.252Z,350
2023-03-31T02:05:23.612Z,355
2023-03-31T02:06:22.815Z,358
2023-03-31T02:07:22.753Z,348
2023-03-31T02:09:23.371Z,349
2023-03-31T02:10:23.549Z,343
2023-03-31T02:11:23.410Z,344
2023-03-31T02:12:23.052Z,351
2023-03-31T02:13:23.060Z,364
2023-03-31T02:14:23.415Z,356
2023-03-31T02:15:23.111Z,359
2023-03-31T02:16:23.239Z,365
2023-03-31T02:17:23.383Z,366
2023-03-31T02:18:23.407Z,353
2023-03-31T02:19:23.725Z,352
2023-03-31T02:20:23.416Z,355
2023-03-31T02:21:23.100Z,357
2023-03-31T02:22:23.680Z,360
2023-03-31T02:23:23.720Z,363
2023-03-31T02:24:22.786Z,353
2023-03-31T02:25:23.147Z,361
2023-03-31T02:26:22.860Z,360
2023-03-31T02:27:23.549Z,355
2023-03-31T02:28:23.285Z,354
2023-03-31T02:29:23.190Z,358
2023-03-31T02:30:23.819Z,349
2023-03-31T02:31:23.432Z,355
2023-03-31T02:32:23.724Z,352
2023-03-31T02:33:23.198Z,359
2023-03-31T02:34:23.353Z,347
2023-03-31T02:36:23.180Z,354
2023-03-31T02:37:23.501Z,363
2023-03-31T02:38:23.149Z,359
2023-03-31T02:39:23.559Z,357
2023-03-31T02:40:23.405Z,354
2023-03-31T02:41:23.637Z,351
2023-03-31T02:42:23.195Z,341
2023-03-31T02:43:23.239Z,346
2023-03-31T02:44:23.220Z,348
2023-03-31T02:45:23.364Z,344
2023-03-31T02:46:23.948Z,348
2023-03-31T02:47:23.162Z,356
2023-03-31T02:48:23.711Z,346
2023-03-31T02:49:24.837Z,357
2023-03-31T02:50:23.288Z,362
2023-03-31T02:51:23.308Z,348
2023-03-31T02:52:23.438Z,350
2023-03-31T02:53:23.075Z,359
2023-03-31T02:54:23.070Z,355
2023-03-31T02:55:23.193Z,359
2023-03-31T02:56:23.072Z,356
2023-03-31T02:57:22.883Z,359
2023-03-31T02:58:23.485Z,365
2023-03-31T02:59:23.831Z,361
2023-03-31T03:00:24.088Z,367
2023-03-31T03:01:23.523Z,352
2023-03-31T03:02:23.647Z,347
2023-03-31T03:03:22.991Z,339
2023-03-31T03:04:22.700Z,344
2023-03-31T03:05:22.956Z,352
2023-03-31T03:06:23.121Z,353
2023-03-31T03:07:23.298Z,352
2023-03-31T03:08:23.349Z,357
2023-03-31T03:09:23.646Z,351
2023-03-31T03:10:23.087Z,354
2023-03-31T03:11:31.446Z,353
2023-03-31T03:13:31.341Z,360
2023-03-31T03:14:23.526Z,356
2023-03-31T03:15:23.692Z,357
2023-03-31T03:16:22.939Z,351
2023-03-31T03:17:23.181Z,357
2023-03-31T03:19:23.452Z,362
2023-03-31T03:21:23.186Z,364
2023-03-31T03:22:23.421Z,363
2023-03-31T03:23:23.234Z,369
2023-03-31T03:24:23.178Z,366
2023-03-31T03:26:23.517Z,355
2023-03-31T03:27:23.641Z,353
2023-03-31T03:28:23.284Z,351
2023-03-31T03:29:23.380Z,357
2023-03-31T03:31:23.824Z,355
2023-03-31T03:32:23.173Z,360
2023-03-31T03:33:23.145Z,366
2023-03-31T03:34:22.990Z,353
2023-03-31T03:35:22.995Z,342
2023-03-31T03:36:23.241Z,352
2023-03-31T03:37:23.324Z,365
2023-03-31T03:38:23.299Z,361
2023-03-31T03:39:23.212Z,365
2023-03-31T03:40:23.289Z,369
2023-03-31T03:41:23.479Z,366
2023-03-31T03:42:23.647Z,363
2023-03-31T03:43:22.912Z,357
2023-03-31T03:44:23.396Z,358
2023-03-31T03:45:23.671Z,373
2023-03-31T03:46:23.302Z,360
2023-03-31T03:47:23.354Z,362
2023-03-31T03:48:23.889Z,356
2023-03-31T03:49:23.167Z,353
2023-03-31T03:50:23.482Z,360
2023-03-31T03:51:23.062Z,356
2023-03-31T03:52:23.155Z,358
2023-03-31T03:53:23.443Z,350
2023-03-31T03:54:23.310Z,358
2023-03-31T03:55:23.651Z,352
2023-03-31T03:56:23.113Z,357
2023-03-31T03:57:23.013Z,358
2023-03-31T03:58:23.350Z,355
2023-03-31T03:59:23.079Z,347
2023-03-31T04:00:24.338Z,343
2023-03-31T04:01:23.389Z,348
2023-03-31T04:02:26.199Z,339
2023-03-31T04:03:23.344Z,337
2023-03-31T04:04:23.493Z,344
2023-03-31T04:05:23.252Z,351
2023-03-31T04:06:23.277Z,350
2023-03-31T04:07:23.296Z,347
2023-03-31T04:08:23.399Z,352
2023-03-31T04:09:23.337Z,346
2023-03-31T04:10:23.664Z,350
2023-03-31T04:11:23.308Z,359
2023-03-31T04:12:24.073Z,361
2023-03-31T04:13:23.351Z,357
2023-03-31T04:14:23.418Z,351
2023-03-31T04:16:23.188Z,353
2023-03-31T04:17:23.482Z,350
2023-03-31T04:18:23.947Z,345
2023-03-31T04:19:23.067Z,352
2023-03-31T04:20:23.271Z,362
2023-03-31T04:21:23.409Z,356
2023-03-31T04:22:23.193Z,351
2023-03-31T04:23:23.309Z,353
2023-03-31T04:24:23.680Z,358
2023-03-31T04:25:23.752Z,354
2023-03-31T04:26:23.516Z,350
2023-03-31T04:27:23.837Z,351
2023-03-31T04:28:23.324Z,356
2023-03-31T04:30:23.609Z,349
2023-03-31T04:31:23.672Z,352
2023-03-31T04:32:23.284Z,360
2023-03-31T04:33:23.137Z,362
2023-03-31T04:34:23.196Z,366
2023-03-31T04:35:23.030Z,362
2023-03-31T04:36:23.467Z,352
2023-03-31T04:37:23.803Z,351
2023-03-31T04:38:23.158Z,355
2023-03-31T04:39:23.667Z,357
2023-03-31T04:40:23.090Z,360
2023-03-31T04:41:23.159Z,353
2023-03-31T04:42:23.182Z,352
2023-03-31T04:43:23.238Z,360
2023-03-31T04:44:25.090Z,347
2023-03-31T04:45:23.349Z,350
2023-03-31T04:46:23.378Z,355
2023-03-31T04:48:23.807Z,351
2023-03-31T04:49:23.212Z,352
2023-03-31T04:50:23.484Z,350
2023-03-31T04:51:23.510Z,359
2023-03-31T04:52:23.597Z,362
2023-03-31T04:53:23.608Z,357
2023-03-31T04:54:23.298Z,355
2023-03-31T04:55:23.658Z,343
2023-03-31T04:56:23.320Z,347
2023-03-31T04:57:23.695Z,355
2023-03-31T04:58:23.056Z,364
2023-03-31T04:59:23.504Z,361
2023-03-31T05:00:23.784Z,359
2023-03-31T05:01:22.817Z,360
2023-03-31T05:02:24.945Z,344
2023-03-31T05:03:23.476Z,346
2023-03-31T05:04:23.211Z,357
2023-03-31T05:05:23.892Z,355
2023-03-31T05:06:23.554Z,356
2023-03-31T05:07:23.567Z,360
2023-03-31T05:08:23.778Z,362
2023-03-31T05:09:23.234Z,364
2023-03-31T05:10:24.010Z,358
2023-03-31T05:11:23.553Z,356
2023-03-31T05:12:23.512Z,352
2023-03-31T05:13:23.212Z,356
2023-03-31T05:14:23.902Z,352
2023-03-31T05:15:23.583Z,360
2023-03-31T05:16:23.209Z,357
2023-03-31T05:17:23.581Z,356
2023-03-31T05:18:23.232Z,352
2023-03-31T05:19:23.755Z,347
2023-03-31T05:20:23.347Z,349
2023-03-31T05:21:28.991Z,353
2023-03-31T05:22:23.000Z,352
2023-03-31T05:23:23.238Z,349
2023-03-31T05:24:23.512Z,350
2023-03-31T05:25:24.126Z,359
2023-03-31T05:26:23.527Z,361
2023-03-31T05:27:23.176Z,347
2023-03-31T05:28:29.871Z,355
2023-03-31T05:29:23.255Z,359
2023-03-31T05:30:23.592Z,355
2023-03-31T05:31:24.400Z,361
2023-03-31T05:32:23.879Z,359
2023-03-31T05:34:23.214Z,358
2023-03-31T05:35:23.669Z,362
2023-03-31T05:36:28.770Z,371
2023-03-31T05:37:23.621Z,357
2023-03-31T05:38:31.251Z,353
2023-03-31T05:40:23.999Z,367
2023-03-31T05:41:23.277Z,360
2023-03-31T05:42:23.416Z,358
2023-03-31T05:43:23.527Z,349
2023-03-31T05:44:23.808Z,343
2023-03-31T05:45:23.650Z,352
2023-03-31T05:46:23.003Z,346
2023-03-31T05:47:23.510Z,352
2023-03-31T05:48:24.021Z,369
2023-03-31T05:49:23.674Z,374
2023-03-31T05:50:23.345Z,360
2023-03-31T05:51:23.656Z,351
2023-03-31T05:52:23.401Z,344
2023-03-31T05:53:23.781Z,342
2023-03-31T05:55:23.267Z,347
2023-03-31T05:56:24.147Z,357
2023-03-31T05:57:24.051Z,364
2023-03-31T05:58:23.919Z,363
2023-03-31T05:59:23.848Z,361
2023-03-31T06:00:24.649Z,357
2023-03-31T06:02:24.461Z,366
2023-03-31T06:03:23.650Z,364
2023-03-31T06:04:23.528Z,358
2023-03-31T06:05:23.743Z,347
2023-03-31T06:06:23.673Z,359
2023-03-31T06:07:23.677Z,362
2023-03-31T06:08:23.695Z,364
2023-03-31T06:09:23.320Z,362
2023-03-31T06:10:23.120Z,367
2023-03-31T06:11:23.410Z,355
2023-03-31T06:12:23.392Z,356
2023-03-31T06:13:23.619Z,361
2023-03-31T06:14:23.586Z,358
2023-03-31T06:15:23.537Z,348
2023-03-31T06:16:23.755Z,342
2023-03-31T06:17:23.584Z,351
2023-03-31T06:18:23.340Z,362
2023-03-31T06:19:23.904Z,366
2023-03-31T06:20:27.712Z,368
2023-03-31T06:21:23.167Z,359
2023-03-31T06:23:23.172Z,361
2023-03-31T06:24:23.843Z,357
2023-03-31T06:25:23.119Z,363
2023-03-31T06:26:23.516Z,355
2023-03-31T06:27:23.177Z,350
2023-03-31T06:28:23.092Z,345
2023-03-31T06:29:23.641Z,354
2023-03-31T06:30:24.077Z,358
2023-03-31T06:31:23.561Z,360
2023-03-31T06:32:23.191Z,355
2023-03-31T06:33:23.684Z,361
2023-03-31T06:34:23.104Z,360
2023-03-31T06:35:25.695Z,356
2023-03-31T06:36:23.059Z,361
2023-03-31T06:37:23.893Z,355
2023-03-31T06:38:23.551Z,361
2023-03-31T06:39:25.726Z,363
2023-03-31T06:40:23.972Z,361
2023-03-31T06:41:23.299Z,364
2023-03-31T06:42:24.035Z,366
2023-03-31T06:43:23.924Z,372
2023-03-31T06:44:23.406Z,370
2023-03-31T06:45:23.969Z,365
2023-03-31T06:46:23.276Z,358
2023-03-31T06:47:23.956Z,360
2023-03-31T06:48:23.355Z,359
2023-03-31T06:49:23.339Z,366
2023-03-31T06:50:23.708Z,352
2023-03-31T06:51:23.741Z,349
2023-03-31T06:52:23.811Z,352
2023-03-31T06:53:23.452Z,361
2023-03-31T06:54:23.818Z,360
2023-03-31T06:55:23.684Z,365
2023-03-31T06:56:23.394Z,358
2023-03-31T06:57:24.557Z,360
2023-03-31T06:58:24.148Z,364
2023-03-31T07:00:24.657Z,359
2023-03-31T07:01:23.861Z,361
2023-03-31T07:03:23.432Z,356
2023-03-31T07:04:23.321Z,349
2023-03-31T07:05:23.767Z,353
2023-03-31T07:07:23.961Z,357
2023-03-31T07:08:23.748Z,359
2023-03-31T07:09:23.456Z,362
2023-03-31T07:10:23.582Z,356
2023-03-31T07:11:23.169Z,358
2023-03-31T07:12:23.612Z,360
2023-03-31T07:13:23.458Z,351
2023-03-31T07:14:23.565Z,342
2023-03-31T07:15:23.864Z,348
2023-03-31T07:16:23.160Z,355
2023-03-31T07:17:23.471Z,340
2023-03-31T07:18:23.210Z,344
2023-03-31T07:19:23.519Z,353
2023-03-31T07:21:22.474Z,351
2023-03-31T07:22:23.870Z,350
2023-03-31T07:23:23.397Z,345
2023-03-31T07:24:23.456Z,346
2023-03-31T07:25:23.785Z,353
2023-03-31T07:26:23.429Z,362
2023-03-31T07:27:25.526Z,361
2023-03-31T07:29:23.860Z,350
2023-03-31T07:30:23.849Z,351
2023-03-31T07:31:23.625Z,361
2023-03-31T07:32:25.816Z,349
2023-03-31T07:33:23.739Z,352
2023-03-31T07:34:24.092Z,360
2023-03-31T07:35:23.986Z,363
2023-03-31T07:36:23.654Z,370
2023-03-31T07:37:23.836Z,361
2023-03-31T07:38:24.115Z,341
2023-03-31T07:39:23.744Z,343
2023-03-31T07:40:23.662Z,331
2023-03-31T07:41:23.202Z,339
2023-03-31T07:42:23.855Z,350
2023-03-31T07:43:23.472Z,342
2023-03-31T07:44:23.329Z,347
2023-03-31T07:45:23.728Z,351
2023-03-31T07:46:23.075Z,359
2023-03-31T07:47:23.852Z,355
2023-03-31T07:48:23.745Z,348
2023-03-31T07:49:23.843Z,351
2023-03-31T07:50:24.052Z,359
2023-03-31T07:51:24.394Z,350
2023-03-31T07:52:23.979Z,356
2023-03-31T07:53:23.845Z,353
2023-03-31T07:54:22.890Z,359
2023-03-31T07:55:23.888Z,358
2023-03-31T07:56:23.586Z,351
2023-03-31T07:57:23.675Z,361
2023-03-31T07:58:23.941Z,357
2023-03-31T07:59:23.246Z,350
2023-03-31T08:00:24.062Z,346
2023-03-31T08:01:23.328Z,341
2023-03-31T08:02:24.195Z,343
2023-03-31T08:03:23.162Z,349
2023-03-31T08:05:23.439Z,353
2023-03-31T08:06:23.697Z,355
2023-03-31T08:07:23.148Z,347
2023-03-31T08:08:23.591Z,353
2023-03-31T08:09:23.648Z,347
2023-03-31T08:10:23.321Z,345
2023-03-31T08:12:23.393Z,356
2023-03-31T08:14:34.078Z,351
2023-03-31T08:15:23.290Z,346
2023-03-31T08:16:23.548Z,348
2023-03-31T08:17:23.965Z,359
2023-03-31T08:18:23.714Z,370
2023-03-31T08:19:23.230Z,355
2023-03-31T08:20:23.840Z,340
2023-03-31T08:21:24.719Z,337
2023-03-31T08:22:23.244Z,330
2023-03-31T08:23:23.839Z,340
2023-03-31T08:24:23.055Z,351
2023-03-31T08:25:23.691Z,355
2023-03-31T08:26:22.970Z,361
2023-03-31T08:27:23.463Z,363
2023-03-31T08:28:23.065Z,369
2023-03-31T08:29:23.635Z,362
2023-03-31T08:30:23.178Z,352
2023-03-31T08:31:23.914Z,346
2023-03-31T08:32:23.408Z,357
2023-03-31T08:33:23.590Z,352
2023-03-31T08:34:23.050Z,349
2023-03-31T08:35:23.465Z,346
2023-03-31T08:36:23.063Z,342
2023-03-31T08:37:23.541Z,344
2023-03-31T08:38:23.706Z,346
2023-03-31T08:39:23.460Z,347
2023-03-31T08:40:24.148Z,346
2023-03-31T08:41:23.178Z,348
2023-03-31T08:42:23.422Z,335
2023-03-31T08:43:23.370Z,352
2023-03-31T08:44:23.530Z,355
2023-03-31T08:45:23.901Z,356
2023-03-31T08:46:23.107Z,352
2023-03-31T08:47:23.366Z,363
2023-03-31T08:48:23.502Z,361
2023-03-31T08:49:23.124Z,349
2023-03-31T08:50:23.906Z,353
2023-03-31T08:51:23.215Z,348
2023-03-31T08:52:23.439Z,335
2023-03-31T08:53:23.607Z,349
2023-03-31T08:54:23.969Z,350
2023-03-31T08:55:23.205Z,356
2023-03-31T08:56:23.681Z,359
2023-03-31T08:57:23.326Z,349
2023-03-31T08:58:24.078Z,346
2023-03-31T08:59:23.656Z,341
2023-03-31T09:00:24.868Z,345
2023-03-31T09:01:23.244Z,338
2023-03-31T09:02:23.614Z,342
2023-03-31T09:03:23.634Z,349
2023-03-31T09:05:24.165Z,344
2023-03-31T09:06:23.419Z,345
2023-03-31T09:07:23.978Z,349
2023-03-31T09:08:23.546Z,341
2023-03-31T09:09:24.197Z,331
2023-03-31T09:10:23.608Z,335
2023-03-31T09:11:23.478Z,331
2023-03-31T09:12:24.212Z,338
2023-03-31T09:13:23.793Z,337
2023-03-31T09:14:23.218Z,350
2023-03-31T09:15:23.495Z,345
2023-03-31T09:17:23.224Z,340
2023-03-31T09:18:25.377Z,344
2023-03-31T09:19:23.586Z,345
2023-03-31T09:20:23.178Z,351
2023-03-31T09:21:23.657Z,345
2023-03-31T09:22:23.227Z,346
2023-03-31T09:23:23.822Z,344
2023-03-31T09:24:23.002Z,350
2023-03-31T09:25:23.514Z,339
2023-03-31T09:26:23.324Z,349
2023-03-31T09:27:23.669Z,343
2023-03-31T09:28:23.806Z,336
2023-03-31T09:29:23.561Z,342
2023-03-31T09:30:24.534Z,346
2023-03-31T09:31:23.543Z,340
2023-03-31T09:32:24.154Z,336
2023-03-31T09:33:23.494Z,345
2023-03-31T09:34:23.088Z,337
2023-03-31T09:35:23.787Z,348
2023-03-31T09:36:23.195Z,343
2023-03-31T09:37:23.668Z,354
2023-03-31T09:38:23.112Z,351
2023-03-31T09:39:23.797Z,350
2023-03-31T09:40:24.137Z,343
2023-03-31T09:41:23.084Z,345
2023-03-31T09:42:23.466Z,347
2023-03-31T09:44:24.699Z,344
2023-03-31T09:45:23.910Z,339
2023-03-31T09:46:24.251Z,333
2023-03-31T09:47:23.529Z,335
2023-03-31T09:48:23.354Z,341
2023-03-31T09:49:23.488Z,337
2023-03-31T09:50:25.464Z,338
2023-03-31T09:51:23.004Z,340
2023-03-31T09:52:23.538Z,342
2023-03-31T09:53:23.323Z,350
2023-03-31T09:54:23.692Z,343
2023-03-31T09:56:23.709Z,339
2023-03-31T09:57:23.015Z,346
2023-03-31T09:59:23.366Z,343
2023-03-31T10:00:23.828Z,350
2023-03-31T10:01:23.392Z,346
2023-03-31T10:03:23.006Z,343
2023-03-31T10:04:23.352Z,345
2023-03-31T10:05:23.913Z,347
2023-03-31T10:06:23.336Z,345
2023-03-31T10:07:23.680Z,335
2023-03-31T10:08:23.730Z,332
2023-03-31T10:09:22.884Z,335
2023-03-31T10:11:23.612Z,343
2023-03-31T10:12:23.742Z,346
2023-03-31T10:13:23.344Z,334
2023-03-31T10:14:23.336Z,344
2023-03-31T10:15:24.004Z,357
2023-03-31T10:16:23.484Z,348
2023-03-31T10:17:23.880Z,349
2023-03-31T10:18:23.434Z,338
2023-03-31T10:19:22.859Z,331
2023-03-31T10:20:24.039Z,336
2023-03-31T10:21:23.202Z,344
2023-03-31T10:22:23.824Z,345
2023-03-31T10:23:23.273Z,341
2023-03-31T10:24:23.408Z,343
2023-03-31T10:25:23.554Z,339
2023-03-31T10:26:23.209Z,338
2023-03-31T10:27:23.704Z,347
2023-03-31T10:28:23.364Z,342
2023-03-31T10:29:23.770Z,339
2023-03-31T10:30:23.748Z,334
2023-03-31T10:31:23.237Z,341
2023-03-31T10:32:23.581Z,350
2023-03-31T10:33:23.772Z,349
2023-03-31T10:34:23.627Z,354
2023-03-31T10:35:23.397Z,353
2023-03-31T10:36:23.326Z,342
2023-03-31T10:37:23.451Z,347
2023-03-31T10:38:23.257Z,348
2023-03-31T10:39:23.596Z,344
2023-03-31T10:40:24.321Z,343
2023-03-31T10:41:23.377Z,348
2023-03-31T10:42:23.522Z,365
2023-03-31T10:43:23.506Z,364
2023-03-31T10:44:23.810Z,366
2023-03-31T10:45:35.619Z,355
2023-03-31T10:46:37.197Z,350
2023-03-31T10:47:23.711Z,341
2023-03-31T10:48:23.861Z,328
2023-03-31T10:49:23.431Z,329
2023-03-31T10:50:23.756Z,333
2023-03-31T10:51:23.099Z,340
2023-03-31T10:52:23.429Z,334
2023-03-31T10:53:23.764Z,323
2023-03-31T10:54:23.345Z,331
2023-03-31T10:55:23.871Z,329
2023-03-31T10:56:23.296Z,336
2023-03-31T10:57:23.805Z,342
2023-03-31T10:58:23.561Z,340
2023-03-31T10:59:23.564Z,337
2023-03-31T11:00:24.525Z,332
2023-03-31T11:01:23.780Z,335
2023-03-31T11:02:23.617Z,339
2023-03-31T11:03:23.458Z,342
2023-03-31T11:04:22.736Z,346
2023-03-31T11:05:23.158Z,349
2023-03-31T11:06:45.545Z,353
2023-03-31T11:07:22.690Z,358
2023-03-31T11:08:23.213Z,347
2023-03-31T11:09:23.475Z,338
2023-03-31T11:10:23.909Z,344
2023-03-31T11:11:23.744Z,345
2023-03-31T11:12:23.680Z,353
2023-03-31T11:13:23.385Z,357
2023-03-31T11:14:23.610Z,356
2023-03-31T11:15:23.601Z,359
2023-03-31T11:17:22.952Z,360
2023-03-31T11:18:23.493Z,350
2023-03-31T11:19:23.202Z,349
2023-03-31T11:20:23.486Z,350
2023-03-31T11:21:24.123Z,349
2023-03-31T11:22:23.395Z,350
2023-03-31T11:23:24.138Z,357
2023-03-31T11:24:23.740Z,353
2023-03-31T11:25:23.300Z,341
2023-03-31T11:26:23.769Z,354
2023-03-31T11:27:23.741Z,348
2023-03-31T11:28:23.086Z,350
2023-03-31T11:29:23.567Z,345
2023-03-31T11:30:23.320Z,340
2023-03-31T11:31:23.717Z,352
2023-03-31T11:32:23.401Z,349
2023-03-31T11:33:23.238Z,351
2023-03-31T11:34:23.467Z,350
2023-03-31T11:35:24.528Z,343
2023-03-31T11:36:23.499Z,339
2023-03-31T11:37:23.074Z,345
2023-03-31T11:38:24.043Z,335
2023-03-31T11:39:23.044Z,337
2023-03-31T11:40:23.763Z,329
2023-03-31T11:41:23.321Z,337
2023-03-31T11:42:23.654Z,331
2023-03-31T11:43:22.515Z,323
2023-03-31T11:44:22.942Z,319
2023-03-31T11:45:23.584Z,316
2023-03-31T11:46:24.214Z,327
2023-03-31T11:47:23.849Z,333
2023-03-31T11:48:23.524Z,319
2023-03-31T11:49:23.945Z,327
2023-03-31T11:51:23.328Z,336
2023-03-31T11:52:23.385Z,343
2023-03-31T11:53:23.685Z,341
2023-03-31T11:54:23.559Z,344
2023-03-31T11:55:23.352Z,345
2023-03-31T11:56:23.591Z,350
2023-03-31T11:57:23.487Z,337
2023-03-31T11:58:23.677Z,349
2023-03-31T11:59:23.701Z,353
2023-03-31T12:00:23.573Z,343
2023-03-31T12:01:23.548Z,347
2023-03-31T12:02:23.493Z,344
2023-03-31T12:03:23.756Z,353
2023-03-31T12:04:23.444Z,350
2023-03-31T12:06:23.769Z,342
2023-03-31T12:07:23.532Z,347
2023-03-31T12:08:23.317Z,350
2023-03-31T12:09:24.279Z,351
2023-03-31T12:10:23.272Z,352
2023-03-31T12:11:23.149Z,355
2023-03-31T12:12:23.122Z,357
2023-03-31T12:13:22.987Z,362
2023-03-31T12:14:23.206Z,357
2023-03-31T12:15:23.449Z,352
2023-03-31T12:16:23.249Z,355
2023-03-31T12:17:23.431Z,351
2023-03-31T12:18:22.998Z,357
2023-03-31T12:19:23.385Z,351
2023-03-31T12:20:23.765Z,355
2023-03-31T12:21:23.539Z,353
2023-03-31T12:22:23.268Z,345
2023-03-31T12:23:23.590Z,358
2023-03-31T12:24:23.524Z,344
2023-03-31T12:26:23.687Z,339
2023-03-31T12:27:24.041Z,351
2023-03-31T12:28:23.165Z,355
2023-03-31T12:30:23.738Z,347
2023-03-31T12:31:23.577Z,341
2023-03-31T12:32:23.416Z,339
2023-03-31T12:33:23.278Z,343
2023-03-31T12:34:23.604Z,342
2023-03-31T12:35:23.814Z,344
2023-03-31T12:36:23.725Z,353
2023-03-31T12:37:23.302Z,346
2023-03-31T12:38:23.947Z,338
2023-03-31T12:39:28.076Z,335
2023-03-31T12:40:23.475Z,348
2023-03-31T12:41:23.730Z,340
2023-03-31T12:42:25.213Z,334
2023-03-31T12:43:28.888Z,339
2023-03-31T12:44:23.300Z,345
2023-03-31T12:45:24.105Z,340
2023-03-31T12:47:24.293Z,334
2023-03-31T12:49:23.659Z,344
2023-03-31T12:51:23.337Z,345
2023-03-31T12:52:23.558Z,336
2023-03-31T12:53:23.407Z,328
2023-03-31T12:54:23.298Z,319
2023-03-31T12:56:24.046Z,337
2023-03-31T12:57:23.968Z,320
2023-03-31T12:58:23.456Z,330
2023-03-31T13:00:24.474Z,337
2023-03-31T13:01:23.574Z,344
2023-03-31T13:02:23.313Z,347
2023-03-31T13:03:23.628Z,340
2023-03-31T13:04:23.646Z,341
2023-03-31T13:05:23.307Z,347
2023-03-31T13:07:28.705Z,346
2023-03-31T13:08:23.770Z,342
2023-03-31T13:09:23.181Z,355
2023-03-31T13:10:23.571Z,336
2023-03-31T13:11:23.097Z,334
2023-03-31T13:12:23.491Z,336
2023-03-31T13:14:23.538Z,340
2023-03-31T13:15:24.225Z,347
2023-03-31T13:16:23.845Z,341
2023-03-31T13:17:23.221Z,334
2023-03-31T13:18:23.598Z,347
2023-03-31T13:19:25.356Z,326
2023-03-31T13:20:23.458Z,323
2023-03-31T13:21:23.604Z,334
2023-03-31T13:22:22.960Z,337
2023-03-31T13:23:23.175Z,345
2023-03-31T13:24:23.547Z,342
2023-03-31T13:25:24.428Z,337
2023-03-31T13:26:23.189Z,349
2023-03-31T13:27:23.714Z,344
2023-03-31T13:28:23.421Z,337
2023-03-31T13:29:22.893Z,339
2023-03-31T13:30:23.884Z,338
2023-03-31T13:31:23.281Z,341
2023-03-31T13:32:23.670Z,331
2023-03-31T13:33:23.477Z,340
2023-03-31T13:34:23.037Z,343
2023-03-31T13:35:23.979Z,339
2023-03-31T13:36:23.704Z,329
2023-03-31T13:38:23.648Z,334
2023-03-31T13:39:23.356Z,335
2023-03-31T13:40:23.127Z,337
2023-03-31T13:41:23.430Z,328
2023-03-31T13:42:24.138Z,321
2023-03-31T13:43:23.468Z,317
2023-03-31T13:44:23.277Z,331
2023-03-31T13:45:23.499Z,338
2023-03-31T13:46:23.602Z,341
2023-03-31T13:47:23.301Z,337
2023-03-31T13:49:23.360Z,345
2023-03-31T13:50:23.917Z,344
2023-03-31T13:51:23.348Z,336
2023-03-31T13:53:23.580Z,339
2023-03-31T13:54:22.921Z,326
2023-03-31T13:55:23.749Z,330
2023-03-31T13:56:23.185Z,338
2023-03-31T13:57:23.764Z,345
2023-03-31T13:58:33.357Z,339
2023-03-31T13:59:23.243Z,329
2023-03-31T14:00:24.194Z,331
2023-03-31T14:01:23.311Z,342
2023-03-31T14:02:23.698Z,338
2023-03-31T14:03:23.421Z,344
2023-03-31T14:04:23.560Z,331
2023-03-31T14:06:23.300Z,330
2023-03-31T14:07:23.399Z,334
2023-03-31T14:08:23.918Z,337
2023-03-31T14:09:23.560Z,338
2023-03-31T14:10:23.662Z,340
2023-03-31T14:11:23.348Z,341
2023-03-31T14:12:23.877Z,348
2023-03-31T14:13:23.484Z,344
2023-03-31T14:14:23.784Z,347
2023-03-31T14:15:24.010Z,339
2023-03-31T14:16:23.588Z,338
2023-03-31T14:18:23.499Z,335
2023-03-31T14:19:23.034Z,332
2023-03-31T14:20:23.757Z,343
2023-03-31T14:21:23.484Z,346
2023-03-31T14:22:23.221Z,337
2023-03-31T14:23:23.630Z,336
2023-03-31T14:24:23.385Z,325
2023-03-31T14:25:24.334Z,327
2023-03-31T14:26:23.834Z,330
2023-03-31T14:27:23.444Z,339
2023-03-31T14:28:23.110Z,333
2023-03-31T14:29:23.360Z,340
2023-03-31T14:30:23.797Z,337
2023-03-31T14:31:22.856Z,346
2023-03-31T14:32:23.446Z,351
2023-03-31T14:33:23.472Z,344
2023-03-31T14:34:23.531Z,354
2023-03-31T14:35:24.001Z,359
2023-03-31T14:36:23.223Z,343
2023-03-31T14:37:23.355Z,335
2023-03-31T14:38:23.825Z,326
2023-03-31T14:39:23.032Z,337
2023-03-31T14:40:23.732Z,331
2023-03-31T14:42:23.316Z,329
2023-03-31T14:43:23.311Z,328
2023-03-31T14:44:23.465Z,340